Time;durP1;ratioP1;P1;durP2;ratioP2;P2;SDS_P1;SDS_P2;PMS_P1;PMS_P2;Temp;Humidity;BMP_temperature;BMP_pressure;BME280_temperature;BME280_humidity;BME280_pressure;Samples;Min_cycle;Max_cycle;Signal;HPM_P1;HPM_P2
2024/02/19 00:00:42;;;;;;;1.05;0.68;;;13.30;91.40;;;;;;5034884;28;20026;-78
2024/02/19 00:03:08;;;;;;;0.60;0.60;;;13.30;91.40;;;;;;5034805;28;20029;-78
2024/02/19 00:05:33;;;;;;;0.70;0.60;;;13.30;91.40;;;;;;5034824;28;20083;-77
2024/02/19 00:07:58;;;;;;;1.00;0.75;;;13.30;91.40;;;;;;5034880;28;20466;-78
2024/02/19 00:10:24;;;;;;;0.82;0.80;;;13.20;91.40;;;;;;5034829;28;20041;-77
2024/02/19 00:12:50;;;;;;;1.08;0.63;;;13.30;91.40;;;;;;5034536;28;20022;-78
2024/02/19 00:15:16;;;;;;;0.90;0.68;;;13.30;91.40;;;;;;5036397;28;20450;-78
2024/02/19 00:17:41;;;;;;;0.63;0.60;;;13.30;91.40;;;;;;5035720;28;20478;-77
2024/02/19 00:20:08;;;;;;;1.55;0.70;;;13.30;91.60;;;;;;5034628;28;20022;-78
2024/02/19 00:22:33;;;;;;;2.50;0.82;;;13.20;91.40;;;;;;5035441;28;20033;-78
2024/02/19 00:24:59;;;;;;;1.17;0.70;;;13.30;91.40;;;;;;5035616;28;20033;-78
2024/02/19 00:27:25;;;;;;;1.58;0.80;;;13.20;91.40;;;;;;5034158;28;20034;-78
2024/02/19 00:29:50;;;;;;;0.95;0.73;;;13.30;91.40;;;;;;5034525;28;20031;-78
2024/02/19 00:32:16;;;;;;;0.73;0.73;;;13.20;91.40;;;;;;5035338;28;20508;-78
2024/02/19 00:34:45;;;;;;;1.23;0.70;;;13.30;91.40;;;;;;5034437;28;20079;-79
2024/02/19 00:37:11;;;;;;;1.40;0.55;;;13.30;91.40;;;;;;5034313;28;20024;-79
2024/02/19 00:39:37;;;;;;;0.60;0.60;;;13.20;91.40;;;;;;5035557;28;20018;-78
2024/02/19 00:42:03;;;;;;;0.82;0.63;;;13.30;91.40;;;;;;5034081;28;20112;-78
2024/02/19 00:44:28;;;;;;;0.68;0.60;;;13.20;91.40;;;;;;5034471;28;20022;-78
2024/02/19 00:46:54;;;;;;;1.45;0.70;;;13.20;91.40;;;;;;5034148;28;20025;-78
2024/02/19 00:49:19;;;;;;;0.77;0.50;;;13.30;91.40;;;;;;5033994;28;20026;-78
2024/02/19 00:51:45;;;;;;;0.68;0.60;;;13.30;91.40;;;;;;5033701;28;20036;-77
2024/02/19 00:54:11;;;;;;;1.55;0.60;;;13.30;91.40;;;;;;5034541;28;20413;-78
2024/02/19 00:56:37;;;;;;;0.98;0.70;;;13.30;91.40;;;;;;5033278;28;20563;-78
2024/02/19 00:59:03;;;;;;;1.08;0.65;;;13.30;91.60;;;;;;5033502;28;20108;-78
2024/02/19 01:01:28;;;;;;;0.88;0.57;;;13.20;91.40;;;;;;5034008;28;20022;-77
2024/02/19 01:03:54;;;;;;;0.70;0.68;;;13.30;91.40;;;;;;5033922;28;20032;-78
2024/02/19 01:06:19;;;;;;;0.90;0.50;;;13.30;91.40;;;;;;5033940;28;20025;-78
2024/02/19 01:08:45;;;;;;;0.77;0.50;;;13.30;91.40;;;;;;5033635;28;20063;-77
2024/02/19 01:11:10;;;;;;;0.60;0.50;;;13.30;91.40;;;;;;5033894;28;20501;-79
2024/02/19 01:13:36;;;;;;;1.35;0.70;;;13.10;91.30;;;;;;5033354;28;20029;-79
2024/02/19 01:16:01;;;;;;;0.85;0.60;;;13.20;91.30;;;;;;5034950;28;20041;-78
2024/02/19 01:18:27;;;;;;;0.88;0.60;;;13.30;91.40;;;;;;5033478;28;20022;-78
2024/02/19 01:20:54;;;;;;;0.82;0.60;;;13.30;91.40;;;;;;5033363;28;20370;-78
2024/02/19 01:23:20;;;;;;;0.82;0.50;;;13.30;91.40;;;;;;5034381;28;20382;-78
2024/02/19 01:25:45;;;;;;;0.50;0.50;;;13.20;91.40;;;;;;5033247;28;20029;-78
2024/02/19 01:28:10;;;;;;;0.90;0.60;;;13.20;91.40;;;;;;5033497;28;20033;-78
2024/02/19 01:30:37;;;;;;;0.50;0.50;;;13.30;91.40;;;;;;5033334;28;20501;-78
2024/02/19 01:33:03;;;;;;;1.13;0.52;;;13.30;91.40;;;;;;5033101;28;20032;-78
2024/02/19 01:35:29;;;;;;;0.77;0.60;;;13.20;91.40;;;;;;5034453;28;20512;-78
2024/02/19 01:37:55;;;;;;;1.23;0.65;;;13.20;91.40;;;;;;5034340;28;20112;-78
2024/02/19 01:40:21;;;;;;;0.77;0.60;;;13.20;91.40;;;;;;5033348;28;20025;-78
2024/02/19 01:42:46;;;;;;;1.08;0.50;;;13.30;91.40;;;;;;5032951;28;20160;-78
2024/02/19 01:45:25;;;;;;;0.80;0.60;;;13.30;91.30;;;;;;5033393;28;20029;-79
2024/02/19 01:47:50;;;;;;;0.43;0.40;;;13.20;91.30;;;;;;5033326;28;20025;-78
2024/02/19 01:50:16;;;;;;;1.05;0.60;;;13.20;91.30;;;;;;5033198;28;20032;-78
2024/02/19 01:52:42;;;;;;;0.95;0.50;;;13.20;91.30;;;;;;5032865;28;20091;-78
2024/02/19 01:55:09;;;;;;;0.70;0.50;;;13.30;91.40;;;;;;5034175;28;20021;-78
2024/02/19 01:57:34;;;;;;;0.60;0.50;;;13.30;91.40;;;;;;5032636;28;20120;-78
2024/02/19 02:00:08;;;;;;;0.88;0.50;;;13.20;91.30;;;;;;5033328;28;20053;-78
2024/02/19 02:02:34;;;;;;;0.93;0.52;;;13.20;91.30;;;;;;5032797;28;20409;-78
2024/02/19 02:05:01;;;;;;;1.02;0.50;;;13.20;91.30;;;;;;5032562;28;20105;-79
2024/02/19 02:07:26;;;;;;;1.05;0.47;;;13.20;91.40;;;;;;5033571;28;20037;-78
2024/02/19 02:09:53;;;;;;;0.93;0.60;;;13.20;91.30;;;;;;5032424;28;20440;-78
2024/02/19 02:12:19;;;;;;;0.82;0.45;;;13.20;91.50;;;;;;5033476;28;20099;-78
2024/02/19 02:14:44;;;;;;;0.40;0.40;;;13.20;91.30;;;;;;5032355;28;20124;-77
2024/02/19 02:17:10;;;;;;;0.47;0.40;;;13.20;91.30;;;;;;5032104;28;20367;-79
2024/02/19 02:19:36;;;;;;;0.70;0.52;;;13.20;91.30;;;;;;5033696;28;20026;-77
2024/02/19 02:22:01;;;;;;;1.00;0.52;;;13.20;91.30;;;;;;5033336;28;20462;-78
2024/02/19 02:24:28;;;;;;;0.68;0.52;;;13.20;91.30;;;;;;5031939;28;20021;-78
2024/02/19 02:26:53;;;;;;;1.10;0.65;;;13.20;91.30;;;;;;5032307;28;20394;-78
2024/02/19 02:29:19;;;;;;;1.08;0.60;;;13.20;91.40;;;;;;5032487;28;20021;-78
2024/02/19 02:31:45;;;;;;;0.60;0.50;;;13.20;91.30;;;;;;5032086;28;20478;-77
2024/02/19 02:34:10;;;;;;;0.57;0.50;;;13.20;91.30;;;;;;5031892;28;20025;-78
2024/02/19 02:36:37;;;;;;;1.10;0.55;;;13.20;91.30;;;;;;5033217;28;20032;-78
2024/02/19 02:39:03;;;;;;;0.47;0.47;;;13.20;91.40;;;;;;5033345;28;20515;-78
2024/02/19 02:41:28;;;;;;;0.77;0.47;;;13.20;91.30;;;;;;5032377;28;20036;-78
2024/02/19 02:43:54;;;;;;;0.77;0.50;;;13.20;91.30;;;;;;5031705;28;20026;-79
2024/02/19 02:46:20;;;;;;;0.98;0.57;;;13.10;91.30;;;;;;5032886;28;20161;-78
2024/02/19 02:48:45;;;;;;;0.80;0.50;;;13.20;91.40;;;;;;5033190;28;20040;-78
2024/02/19 02:51:11;;;;;;;1.13;0.60;;;13.20;91.30;;;;;;5031675;28;20029;-78
2024/02/19 02:53:37;;;;;;;1.15;0.60;;;13.20;91.30;;;;;;5032882;28;20025;-78
2024/02/19 02:56:02;;;;;;;1.15;0.60;;;13.20;91.30;;;;;;5031690;28;20093;-79
2024/02/19 02:58:28;;;;;;;0.90;0.68;;;13.20;91.30;;;;;;5032566;28;20034;-78
2024/02/19 03:00:53;;;;;;;1.15;0.50;;;13.20;91.30;;;;;;5031531;28;20052;-78
2024/02/19 03:03:19;;;;;;;0.68;0.50;;;13.20;91.60;;;;;;5031988;28;20033;-79
2024/02/19 03:05:44;;;;;;;0.68;0.40;;;13.20;91.30;;;;;;5028840;28;20209;-77
2024/02/19 03:08:10;;;;;;;1.40;0.63;;;13.20;91.30;;;;;;5032912;28;20428;-79
2024/02/19 03:10:35;;;;;;;1.33;0.68;;;13.20;91.30;;;;;;5032422;28;20508;-78
2024/02/19 03:13:01;;;;;;;0.80;0.50;;;13.20;91.30;;;;;;5032748;28;20053;-77
2024/02/19 03:15:26;;;;;;;0.40;0.40;;;13.20;91.30;;;;;;5032617;28;20392;-78
2024/02/19 03:17:52;;;;;;;0.88;0.63;;;13.20;91.30;;;;;;5031097;28;20032;-78
2024/02/19 03:20:18;;;;;;;0.45;0.45;;;13.20;91.30;;;;;;5031533;28;20512;-78
2024/02/19 03:22:45;;;;;;;1.05;0.68;;;13.10;91.30;;;;;;5031203;28;20470;-78
2024/02/19 03:25:10;;;;;;;0.68;0.47;;;13.20;91.30;;;;;;5031384;28;20026;-78
2024/02/19 03:27:36;;;;;;;1.25;0.50;;;13.20;91.30;;;;;;5032489;28;20083;-78
2024/02/19 03:30:02;;;;;;;2.25;0.73;;;13.10;91.30;;;;;;5031237;28;20121;-78
2024/02/19 03:32:28;;;;;;;0.88;0.45;;;13.20;91.30;;;;;;5031164;28;20021;-77
2024/02/19 03:34:54;;;;;;;0.52;0.50;;;13.10;91.30;;;;;;5032587;28;20041;-77
2024/02/19 03:37:19;;;;;;;0.90;0.50;;;13.20;91.30;;;;;;5031339;28;20068;-78
2024/02/19 03:39:45;;;;;;;0.73;0.50;;;13.20;91.30;;;;;;5032682;28;20108;-78
2024/02/19 03:42:10;;;;;;;1.85;0.55;;;13.20;91.30;;;;;;5031066;28;20478;-78
2024/02/19 03:44:36;;;;;;;0.55;0.40;;;13.20;91.30;;;;;;5031213;28;20026;-78
2024/02/19 03:47:01;;;;;;;0.75;0.50;;;13.20;91.30;;;;;;5030968;28;20105;-78
2024/02/19 03:49:27;;;;;;;0.82;0.40;;;13.20;91.30;;;;;;5031364;28;20112;-78
2024/02/19 03:51:52;;;;;;;0.75;0.43;;;13.20;91.30;;;;;;5030839;28;20084;-78
2024/02/19 03:54:18;;;;;;;0.68;0.45;;;13.20;91.30;;;;;;5031080;28;20030;-78
2024/02/19 03:56:43;;;;;;;0.50;0.40;;;13.20;91.30;;;;;;5032132;28;20030;-78
2024/02/19 03:59:10;;;;;;;0.80;0.50;;;13.20;91.30;;;;;;5031005;28;20057;-78
2024/02/19 04:01:39;;;;;;;0.73;0.32;;;13.20;91.30;;;;;;5032303;28;20035;-79
2024/02/19 04:04:04;;;;;;;1.33;0.60;;;13.20;91.30;;;;;;5032226;28;20022;-78
2024/02/19 04:06:30;;;;;;;1.23;0.40;;;13.20;91.30;;;;;;5032468;28;20556;-78
2024/02/19 04:08:55;;;;;;;0.75;0.30;;;13.20;91.40;;;;;;5032350;28;20037;-78
2024/02/19 04:11:21;;;;;;;0.73;0.50;;;13.20;91.30;;;;;;5032248;28;20036;-77
2024/02/19 04:13:46;;;;;;;0.47;0.40;;;13.20;91.30;;;;;;5031970;28;20026;-78
2024/02/19 04:16:12;;;;;;;0.60;0.50;;;13.20;91.30;;;;;;5030123;28;20037;-79
2024/02/19 04:18:38;;;;;;;1.05;0.30;;;13.20;91.40;;;;;;5027181;28;20042;-79
2024/02/19 04:21:03;;;;;;;0.82;0.50;;;13.20;91.30;;;;;;5029502;28;20025;-79
2024/02/19 04:23:29;;;;;;;2.88;0.68;;;13.20;91.30;;;;;;5033802;28;20022;-77
2024/02/19 04:25:54;;;;;;;1.05;0.40;;;13.20;91.30;;;;;;5015193;28;20034;-81
2024/02/19 04:28:20;;;;;;;1.00;0.40;;;13.20;91.30;;;;;;5038275;28;20916;-79
2024/02/19 04:30:45;;;;;;;0.52;0.40;;;13.20;91.30;;;;;;5038471;28;20025;-80
2024/02/19 04:33:11;;;;;;;0.52;0.40;;;13.20;91.30;;;;;;5035499;28;20458;-80
2024/02/19 04:35:36;;;;;;;0.60;0.40;;;13.20;91.30;;;;;;5033078;28;20026;-80
2024/02/19 04:38:02;;;;;;;1.25;0.50;;;13.20;91.30;;;;;;5034738;28;20029;-78
2024/02/19 04:40:27;;;;;;;1.05;0.30;;;13.20;91.30;;;;;;5034247;28;20079;-80
2024/02/19 04:42:53;;;;;;;1.60;0.50;;;13.10;91.30;;;;;;5032582;28;20079;-78
2024/02/19 04:45:18;;;;;;;0.60;0.30;;;13.20;91.30;;;;;;5033306;28;20483;-80
2024/02/19 04:47:44;;;;;;;0.82;0.50;;;13.20;91.30;;;;;;5034933;28;20076;-78
2024/02/19 04:50:10;;;;;;;1.08;0.47;;;13.20;91.40;;;;;;5036288;28;20038;-81
2024/02/19 04:52:35;;;;;;;1.10;0.50;;;13.20;91.30;;;;;;5029490;28;20037;-77
2024/02/19 04:55:02;;;;;;;1.15;0.40;;;13.10;91.30;;;;;;5031839;28;20095;-78
2024/02/19 04:57:28;;;;;;;0.50;0.47;;;13.20;91.30;;;;;;5031020;28;20084;-78
2024/02/19 04:59:53;;;;;;;0.30;0.30;;;13.20;91.30;;;;;;5036745;28;20025;-80
2024/02/19 05:02:19;;;;;;;1.33;0.60;;;13.20;91.30;;;;;;5034618;28;20017;-77
2024/02/19 05:04:45;;;;;;;0.55;0.40;;;13.20;91.30;;;;;;5030888;28;20032;-80
2024/02/19 05:07:10;;;;;;;2.33;0.70;;;13.20;91.60;;;;;;5032325;28;20397;-80
2024/02/19 05:09:36;;;;;;;0.85;0.50;;;13.20;91.30;;;;;;5033130;28;20045;-81
2024/02/19 05:12:03;;;;;;;1.33;0.50;;;13.20;91.30;;;;;;5032410;28;20036;-78
2024/02/19 05:14:28;;;;;;;0.98;0.35;;;13.10;91.30;;;;;;5033411;28;20044;-80
2024/02/19 05:16:55;;;;;;;1.05;0.30;;;13.10;91.30;;;;;;5031924;28;20029;-79
2024/02/19 05:19:21;;;;;;;0.30;0.30;;;13.20;91.30;;;;;;5032209;28;20025;-78
2024/02/19 05:21:47;;;;;;;1.92;0.52;;;13.20;91.30;;;;;;5030587;28;20052;-78
2024/02/19 05:24:15;;;;;;;0.40;0.40;;;13.10;91.30;;;;;;5030250;28;20029;-79
2024/02/19 05:26:40;;;;;;;0.50;0.40;;;13.20;91.30;;;;;;5030970;28;20021;-77
2024/02/19 05:29:08;;;;;;;1.55;0.60;;;13.20;91.30;;;;;;5030388;28;20032;-78
2024/02/19 05:31:35;;;;;;;1.10;0.50;;;13.10;91.30;;;;;;5030426;28;20029;-79
2024/02/19 05:34:03;;;;;;;0.93;0.50;;;13.20;91.30;;;;;;5029022;28;20021;-80
2024/02/19 05:36:29;;;;;;;1.35;0.60;;;13.10;91.30;;;;;;5031987;28;20029;-80
2024/02/19 05:38:54;;;;;;;0.35;0.35;;;13.20;91.40;;;;;;5029863;28;20029;-79
2024/02/19 05:41:20;;;;;;;0.73;0.40;;;13.10;91.30;;;;;;5030426;28;20036;-80
2024/02/19 05:43:48;;;;;;;0.68;0.50;;;13.20;91.30;;;;;;5029911;28;20033;-77
2024/02/19 05:46:14;;;;;;;0.77;0.38;;;13.20;91.30;;;;;;5029840;28;20047;-78
2024/02/19 05:48:43;;;;;;;0.73;0.47;;;13.20;91.30;;;;;;5030174;28;20025;-78
2024/02/19 05:51:11;;;;;;;1.55;0.57;;;13.20;91.30;;;;;;5029536;28;20087;-80
2024/02/19 05:53:36;;;;;;;0.55;0.38;;;13.20;91.30;;;;;;5029173;28;20036;-77
2024/02/19 05:56:04;;;;;;;1.80;0.60;;;13.20;91.30;;;;;;5033833;28;20025;-80
2024/02/19 05:58:32;;;;;;;1.33;0.40;;;13.20;91.40;;;;;;5029827;28;20029;-78
2024/02/19 06:00:58;;;;;;;0.95;0.40;;;13.20;91.30;;;;;;5030234;28;20022;-79
2024/02/19 06:03:25;;;;;;;1.33;0.50;;;13.20;91.40;;;;;;5030287;28;20028;-78
2024/02/19 06:05:51;;;;;;;1.30;0.60;;;13.20;91.30;;;;;;5029999;28;20026;-79
2024/02/19 06:08:16;;;;;;;0.82;0.55;;;13.20;91.40;;;;;;5030020;28;20099;-79
2024/02/19 06:10:45;;;;;;;0.30;0.30;;;13.20;91.30;;;;;;5030522;28;20123;-79
2024/02/19 06:13:14;;;;;;;1.23;0.50;;;13.10;91.30;;;;;;5029542;28;20120;-80
2024/02/19 06:15:42;;;;;;;0.82;0.50;;;13.20;91.30;;;;;;5029988;28;20108;-80
2024/02/19 06:18:08;;;;;;;0.57;0.45;;;13.10;91.30;;;;;;5030038;28;20025;-79
2024/02/19 06:20:34;;;;;;;1.95;0.50;;;13.10;91.30;;;;;;5030176;28;20053;-78
2024/02/19 06:23:00;;;;;;;0.90;0.57;;;13.20;91.30;;;;;;5029415;28;20076;-80
2024/02/19 06:25:25;;;;;;;1.58;0.73;;;13.10;91.30;;;;;;5029158;28;20471;-79
2024/02/19 06:27:51;;;;;;;1.40;0.60;;;13.10;91.30;;;;;;5029866;28;20025;-79
2024/02/19 06:30:18;;;;;;;0.73;0.50;;;13.20;91.30;;;;;;5030948;28;20048;-79
2024/02/19 06:32:43;;;;;;;1.15;0.40;;;13.10;91.30;;;;;;5031026;28;20029;-79
2024/02/19 06:35:09;;;;;;;0.80;0.40;;;13.20;91.30;;;;;;5030892;28;20032;-80
2024/02/19 06:37:35;;;;;;;0.80;0.45;;;13.20;91.40;;;;;;5028556;28;20033;-78
2024/02/19 06:40:00;;;;;;;1.80;0.60;;;13.20;91.60;;;;;;5030224;28;20018;-80
2024/02/19 06:42:26;;;;;;;0.80;0.60;;;13.10;91.30;;;;;;5028685;28;20386;-79
2024/02/19 06:44:52;;;;;;;1.33;0.60;;;13.10;91.30;;;;;;5029267;28;20017;-79
2024/02/19 06:47:17;;;;;;;1.20;0.50;;;13.10;91.30;;;;;;5029464;28;20025;-78
2024/02/19 06:49:43;;;;;;;0.85;0.60;;;13.20;91.30;;;;;;5029398;28;20045;-79
2024/02/19 06:52:09;;;;;;;1.50;0.50;;;13.10;91.30;;;;;;5028519;28;20037;-81
2024/02/19 06:54:35;;;;;;;1.40;0.50;;;13.20;91.30;;;;;;5029759;28;20056;-79
2024/02/19 06:57:00;;;;;;;0.93;0.50;;;13.20;91.40;;;;;;5029014;28;20295;-80
2024/02/19 06:59:26;;;;;;;1.67;0.80;;;13.20;91.30;;;;;;5030599;28;20105;-81
2024/02/19 07:01:51;;;;;;;2.13;0.65;;;13.20;91.30;;;;;;5029247;28;20030;-79
2024/02/19 07:04:18;;;;;;;0.85;0.50;;;13.10;91.30;;;;;;5029311;28;20025;-80
2024/02/19 07:06:44;;;;;;;2.78;0.70;;;13.10;91.60;;;;;;5028818;28;20036;-77
2024/02/19 07:09:09;;;;;;;0.63;0.50;;;13.10;91.30;;;;;;5028666;28;20041;-78
2024/02/19 07:11:35;;;;;;;0.73;0.50;;;13.10;91.30;;;;;;5028903;28;20032;-78
2024/02/19 07:14:00;;;;;;;0.98;0.50;;;13.10;91.30;;;;;;5027936;28;20035;-81
2024/02/19 07:16:26;;;;;;;0.80;0.50;;;13.20;91.40;;;;;;5028688;28;20033;-78
2024/02/19 07:18:51;;;;;;;0.77;0.57;;;13.10;91.30;;;;;;5032430;28;20529;-79
2024/02/19 07:21:20;;;;;;;0.60;0.50;;;13.10;91.30;;;;;;5030673;28;20032;-80
2024/02/19 07:23:45;;;;;;;1.58;0.60;;;13.20;91.30;;;;;;5029316;28;20025;-79
2024/02/19 07:26:11;;;;;;;1.00;0.60;;;13.20;91.40;;;;;;5029277;28;20033;-80
2024/02/19 07:28:36;;;;;;;1.00;0.70;;;13.20;91.30;;;;;;5029806;28;20022;-78
2024/02/19 07:31:02;;;;;;;1.38;0.77;;;13.20;91.30;;;;;;5029474;28;20036;-81
2024/02/19 07:33:27;;;;;;;1.02;0.70;;;13.20;91.30;;;;;;5029899;28;20390;-82
2024/02/19 07:35:53;;;;;;;1.02;0.60;;;13.20;91.30;;;;;;5029287;28;20113;-78
2024/02/19 07:38:20;;;;;;;0.88;0.60;;;13.20;91.30;;;;;;5029682;28;20108;-79
2024/02/19 07:40:45;;;;;;;0.98;0.70;;;13.10;91.30;;;;;;5029237;28;20022;-80
2024/02/19 07:43:12;;;;;;;0.82;0.50;;;13.20;91.30;;;;;;5045216;28;20025;-78
2024/02/19 07:45:38;;;;;;;0.90;0.50;;;13.20;91.30;;;;;;5028752;28;20045;-79
2024/02/19 07:48:06;;;;;;;0.60;0.57;;;13.20;91.30;;;;;;5045889;28;20068;-79
2024/02/19 07:50:32;;;;;;;1.20;0.73;;;13.20;91.30;;;;;;5028793;28;20378;-78
2024/02/19 07:52:58;;;;;;;1.40;0.50;;;13.20;91.30;;;;;;5032414;28;20025;-79
2024/02/19 07:55:25;;;;;;;2.17;0.60;;;13.20;91.30;;;;;;5031224;28;20544;-79
2024/02/19 07:57:51;;;;;;;1.30;0.57;;;13.20;91.30;;;;;;5032333;28;20694;-79
2024/02/19 08:00:17;;;;;;;1.15;0.70;;;13.20;91.30;;;;;;5036365;28;20037;-78
2024/02/19 08:02:42;;;;;;;1.48;0.80;;;13.20;91.30;;;;;;5034827;28;20017;-77
2024/02/19 08:05:08;;;;;;;1.00;0.70;;;13.20;91.30;;;;;;5035074;28;20128;-78
2024/02/19 08:07:33;;;;;;;0.98;0.65;;;13.20;91.30;;;;;;5036351;28;20401;-79
2024/02/19 08:09:59;;;;;;;2.72;0.68;;;13.20;91.30;;;;;;5034906;28;20108;-78
2024/02/19 08:12:24;;;;;;;1.30;0.57;;;13.20;91.30;;;;;;5034660;28;20485;-79
2024/02/19 08:14:50;;;;;;;2.83;0.80;;;13.20;91.30;;;;;;5034943;28;20033;-79
2024/02/19 08:17:16;;;;;;;2.45;0.65;;;13.20;91.20;;;;;;5034723;28;20079;-79
2024/02/19 08:19:42;;;;;;;1.95;0.70;;;13.20;91.20;;;;;;5036140;28;20140;-80
2024/02/19 08:22:07;;;;;;;2.45;0.70;;;13.30;91.20;;;;;;5034608;28;20076;-79
2024/02/19 08:24:33;;;;;;;1.98;0.70;;;13.30;91.00;;;;;;5034699;28;20028;-79
2024/02/19 08:26:58;;;;;;;2.13;0.70;;;13.40;90.80;;;;;;5035759;28;20021;-79
2024/02/19 08:29:24;;;;;;;0.95;0.55;;;13.50;90.70;;;;;;5035991;28;20040;-79
2024/02/19 08:31:50;;;;;;;3.03;0.60;;;13.60;90.60;;;;;;5035793;28;20036;-77
2024/02/19 08:34:16;;;;;;;2.47;0.70;;;13.60;90.50;;;;;;5034639;28;20417;-77
2024/02/19 08:36:41;;;;;;;1.48;0.55;;;13.70;90.50;;;;;;5034341;28;20072;-79
2024/02/19 08:39:07;;;;;;;2.60;0.60;;;13.70;90.50;;;;;;5035632;28;20033;-80
2024/02/19 08:41:32;;;;;;;0.95;0.47;;;13.60;90.40;;;;;;5033837;28;20767;-80
2024/02/19 08:43:58;;;;;;;3.40;0.70;;;13.60;90.50;;;;;;5035115;28;20021;-80
2024/02/19 08:46:23;;;;;;;0.77;0.57;;;13.70;90.50;;;;;;5034185;28;20088;-81
2024/02/19 08:48:53;;;;;;;2.00;0.63;;;13.70;90.50;;;;;;5034274;28;20071;-78
2024/02/19 08:51:21;;;;;;;3.67;0.80;;;13.70;90.50;;;;;;5034123;28;20071;-80
2024/02/19 08:53:47;;;;;;;2.05;0.70;;;13.60;90.40;;;;;;5035073;28;20025;-77
2024/02/19 08:56:13;;;;;;;1.08;0.70;;;13.70;90.50;;;;;;5033976;28;20037;-79
2024/02/19 08:58:38;;;;;;;1.58;0.80;;;13.60;90.50;;;;;;5033814;28;20025;-79
2024/02/19 09:01:10;;;;;;;3.95;0.60;;;13.60;90.60;;;;;;5034074;28;20045;-78
2024/02/19 09:03:36;;;;;;;1.35;0.63;;;13.60;90.60;;;;;;5035167;28;20032;-78
2024/02/19 09:06:02;;;;;;;1.23;0.60;;;13.60;90.60;;;;;;5034148;28;20030;-79
2024/02/19 09:08:28;;;;;;;0.98;0.50;;;13.60;90.60;;;;;;5033210;28;20026;-79
2024/02/19 09:10:54;;;;;;;2.30;0.80;;;13.60;90.60;;;;;;5033122;28;20033;-79
2024/02/19 09:13:19;;;;;;;1.65;0.65;;;13.50;90.60;;;;;;5034842;28;20029;-79
2024/02/19 09:15:45;;;;;;;2.30;0.80;;;13.50;90.60;;;;;;5033860;28;20041;-79
2024/02/19 09:18:11;;;;;;;1.58;0.60;;;13.60;90.70;;;;;;5033636;28;20087;-78
2024/02/19 09:20:37;;;;;;;2.25;0.85;;;13.50;90.70;;;;;;5033729;28;20018;-79
2024/02/19 09:23:02;;;;;;;0.77;0.55;;;13.50;90.70;;;;;;5033673;28;20401;-79
2024/02/19 09:25:28;;;;;;;1.08;0.60;;;13.50;90.70;;;;;;5033857;28;20029;-80
2024/02/19 09:27:54;;;;;;;2.42;0.80;;;13.50;90.70;;;;;;5033762;28;20033;-79
2024/02/19 09:30:20;;;;;;;1.38;0.60;;;13.50;90.70;;;;;;5034863;28;20030;-79
2024/02/19 09:32:45;;;;;;;2.08;0.70;;;13.50;90.80;;;;;;5033470;28;20037;-79
2024/02/19 09:35:10;;;;;;;2.10;0.60;;;13.50;90.80;;;;;;5033348;28;20511;-79
2024/02/19 09:37:36;;;;;;;1.02;0.60;;;13.50;90.80;;;;;;5033334;28;20092;-79
2024/02/19 09:40:06;;;;;;;1.35;0.60;;;13.40;90.80;;;;;;5033215;28;20116;-79
2024/02/19 09:42:32;;;;;;;2.25;0.70;;;13.40;90.90;;;;;;5033155;28;20120;-79
2024/02/19 09:44:57;;;;;;;1.95;0.60;;;13.40;90.90;;;;;;5034586;28;20100;-79
2024/02/19 09:47:24;;;;;;;1.25;0.55;;;13.40;90.90;;;;;;5034386;28;20490;-79
2024/02/19 09:49:50;;;;;;;2.47;0.70;;;13.40;90.90;;;;;;5032991;28;20026;-79
2024/02/19 09:52:22;;;;;;;1.75;0.77;;;13.40;90.90;;;;;;5034327;28;20026;-80
2024/02/19 09:54:49;;;;;;;1.80;0.65;;;13.40;90.90;;;;;;5033059;28;20075;-79
2024/02/19 09:57:14;;;;;;;2.45;0.80;;;13.40;91.00;;;;;;5034037;28;20091;-79
2024/02/19 09:59:44;;;;;;;2.15;0.70;;;13.40;90.90;;;;;;5033051;28;20474;-79
2024/02/19 10:02:11;;;;;;;2.10;0.65;;;13.40;90.90;;;;;;5032902;28;20028;-79
2024/02/19 10:04:37;;;;;;;1.25;0.60;;;13.40;90.90;;;;;;5034011;28;20018;-79
2024/02/19 10:07:03;;;;;;;0.88;0.57;;;13.50;90.90;;;;;;5033973;28;20108;-79
2024/02/19 10:09:29;;;;;;;2.65;0.60;;;13.40;90.80;;;;;;5033798;28;20040;-79
2024/02/19 10:11:58;;;;;;;1.80;0.65;;;13.40;90.80;;;;;;5032631;28;20021;-78
2024/02/19 10:14:24;;;;;;;1.02;0.60;;;13.40;90.80;;;;;;5032674;28;20028;-78
2024/02/19 10:16:53;;;;;;;2.78;0.88;;;13.50;90.80;;;;;;5033712;28;20107;-79
2024/02/19 10:19:19;;;;;;;1.00;0.60;;;13.50;90.80;;;;;;5032740;28;20057;-79
2024/02/19 10:21:50;;;;;;;1.15;0.52;;;13.50;90.80;;;;;;5032249;28;20111;-79
2024/02/19 10:24:16;;;;;;;2.70;0.80;;;13.50;90.70;;;;;;5033949;28;20130;-78
2024/02/19 10:26:43;;;;;;;1.50;0.60;;;13.50;90.80;;;;;;5033621;28;20033;-79
2024/02/19 10:29:08;;;;;;;3.58;0.90;;;13.40;90.70;;;;;;5032586;28;20030;-78
2024/02/19 10:31:35;;;;;;;3.17;0.88;;;13.50;90.70;;;;;;5032134;28;20025;-79
2024/02/19 10:34:00;;;;;;;1.70;0.70;;;13.50;90.70;;;;;;5032302;28;20025;-78
2024/02/19 10:36:27;;;;;;;2.30;0.70;;;13.50;90.70;;;;;;5032383;28;20025;-79
2024/02/19 10:38:52;;;;;;;2.28;0.70;;;13.50;90.70;;;;;;5033492;28;20025;-79
2024/02/19 10:41:20;;;;;;;1.65;0.70;;;13.50;90.70;;;;;;5032220;28;20032;-77
2024/02/19 10:43:46;;;;;;;1.48;0.80;;;13.50;90.80;;;;;;5031888;28;20487;-77
2024/02/19 10:46:19;;;;;;;1.38;0.77;;;13.40;90.70;;;;;;5032118;28;20060;-79
2024/02/19 10:48:46;;;;;;;1.80;0.80;;;13.50;90.80;;;;;;5032128;28;20021;-78
2024/02/19 10:51:12;;;;;;;1.77;0.90;;;13.50;90.80;;;;;;5033304;28;20029;-79
2024/02/19 10:53:38;;;;;;;1.00;0.60;;;13.50;90.80;;;;;;5031761;28;20033;-79
2024/02/19 10:56:18;;;;;;;2.50;0.80;;;13.50;90.80;;;;;;5048590;28;20029;-80
2024/02/19 10:58:54;;;;;;;1.83;0.80;;;13.50;90.80;;;;;;5033342;28;20379;-80
2024/02/19 11:01:22;;;;;;;2.70;0.93;;;13.50;91.00;;;;;;5031960;28;20140;-79
2024/02/19 11:03:49;;;;;;;2.03;0.75;;;13.50;90.80;;;;;;5032006;28;20442;-79
2024/02/19 11:06:15;;;;;;;0.55;0.55;;;13.50;90.80;;;;;;5031784;28;20060;-79
2024/02/19 11:08:53;;;;;;;2.05;0.75;;;13.50;90.90;;;;;;5031937;28;20126;-79
2024/02/19 11:11:20;;;;;;;2.05;0.70;;;13.50;90.90;;;;;;5033079;28;20028;-78
2024/02/19 11:13:47;;;;;;;2.10;0.80;;;13.50;90.90;;;;;;5032908;28;20025;-79
2024/02/19 11:16:20;;;;;;;1.55;0.70;;;13.40;90.80;;;;;;5031841;28;20104;-79
2024/02/19 11:18:46;;;;;;;1.75;0.88;;;13.50;90.80;;;;;;5031537;28;20498;-79
2024/02/19 11:21:12;;;;;;;2.22;0.70;;;13.50;90.80;;;;;;5031700;28;20017;-79
2024/02/19 11:23:37;;;;;;;2.70;0.80;;;13.50;90.70;;;;;;5031409;28;20052;-78
2024/02/19 11:26:03;;;;;;;1.30;0.70;;;13.60;90.60;;;;;;5031344;28;20060;-77
2024/02/19 11:28:32;;;;;;;2.53;0.70;;;13.60;90.60;;;;;;5031078;28;20029;-78
2024/02/19 11:31:05;;;;;;;1.02;0.55;;;13.60;90.60;;;;;;5031001;28;20053;-79
2024/02/19 11:33:31;;;;;;;1.95;0.70;;;13.60;90.60;;;;;;5031559;28;20025;-79
2024/02/19 11:36:00;;;;;;;2.85;1.08;;;13.60;90.60;;;;;;5031360;28;20025;-79
2024/02/19 11:38:29;;;;;;;2.63;0.80;;;13.60;90.60;;;;;;5032650;28;20033;-78
2024/02/19 11:40:55;;;;;;;2.15;0.88;;;13.60;90.60;;;;;;5048857;28;20033;-79
2024/02/19 11:43:21;;;;;;;1.42;0.70;;;13.60;90.80;;;;;;5032692;28;20025;-79
2024/02/19 11:45:47;;;;;;;1.75;0.82;;;13.60;90.60;;;;;;5031449;28;20021;-79
2024/02/19 11:48:13;;;;;;;1.90;0.70;;;13.60;90.60;;;;;;5031407;28;20029;-78
2024/02/19 11:50:41;;;;;;;1.08;0.70;;;13.60;90.60;;;;;;5031325;28;20033;-79
2024/02/19 11:53:09;;;;;;;1.88;0.70;;;13.60;90.60;;;;;;5031051;28;20112;-79
2024/02/19 11:55:35;;;;;;;2.20;0.85;;;13.60;90.60;;;;;;5032388;28;20026;-79
2024/02/19 11:58:00;;;;;;;2.85;0.73;;;13.60;90.60;;;;;;5031167;28;20022;-79
2024/02/19 12:00:29;;;;;;;2.05;0.90;;;13.60;90.60;;;;;;5031141;28;20056;-79
2024/02/19 12:02:56;;;;;;;1.85;0.80;;;13.60;90.60;;;;;;5031008;28;20044;-78
2024/02/19 12:05:22;;;;;;;1.45;0.80;;;13.60;90.60;;;;;;5031282;28;20032;-80
2024/02/19 12:07:47;;;;;;;1.80;0.80;;;13.60;90.60;;;;;;5032381;28;20059;-79
2024/02/19 12:10:14;;;;;;;2.25;0.65;;;13.70;90.60;;;;;;5030511;28;20374;-79
2024/02/19 12:12:40;;;;;;;1.17;0.75;;;13.60;90.60;;;;;;5031879;28;20071;-80
2024/02/19 12:15:11;;;;;;;1.90;0.90;;;13.60;90.60;;;;;;5032260;28;20065;-79
2024/02/19 12:17:37;;;;;;;1.85;0.80;;;13.60;90.60;;;;;;5031237;28;20033;-80
2024/02/19 12:20:03;;;;;;;1.80;0.80;;;13.60;90.60;;;;;;5031351;28;20064;-78
2024/02/19 12:22:29;;;;;;;1.35;0.80;;;13.60;90.60;;;;;;5030851;28;20068;-79
2024/02/19 12:24:54;;;;;;;2.38;0.98;;;13.60;90.70;;;;;;5030901;28;20026;-79
2024/02/19 12:27:20;;;;;;;2.00;0.93;;;13.60;90.60;;;;;;5032143;28;20099;-79
2024/02/19 12:29:45;;;;;;;2.90;1.00;;;13.60;90.60;;;;;;5031070;28;20033;-79
2024/02/19 12:32:11;;;;;;;1.95;1.02;;;13.60;90.50;;;;;;5030710;28;20056;-78
2024/02/19 12:34:39;;;;;;;1.75;0.85;;;13.60;90.50;;;;;;5032187;28;20548;-78
2024/02/19 12:37:05;;;;;;;1.40;0.73;;;13.60;90.50;;;;;;5030886;28;20056;-79
2024/02/19 12:39:31;;;;;;;2.85;1.10;;;13.60;90.60;;;;;;5031011;28;20485;-79
2024/02/19 12:41:57;;;;;;;2.28;0.90;;;13.60;90.60;;;;;;5030753;28;20088;-78